Anuket Pearl — 9HA2703 — position and weather

sailwx.info

Track history (hours):
 
Tides and Currents Weather Stations Pressure Air Temp Water Temp Dewpoint Dewpoint Depression Visibility Wind Speed Wind Dir Waves Ship Positions

Anuket Pearl

Last reported at 2017-Oct-25 10:46 UTC. Time now 2017-Nov-22 03:43 UTC.
Position N 05°32' E 000°22'.
Warning: this ship's position is 27 days out of date.

Length 101 m; draft 6.6 m.

MMSI: 215338000.

Date/timePositionNaut miles runAvg speedWind from/ knotsBaromVisibWave heightAir tempDewpointWater temp
2017-Oct-25 10:46N 05°32' E 000°22'2 8.9
2017-Oct-25 10:30N 05°32' E 000°20'4 8.9
2017-Oct-25 10:00N 05°33' E 000°16'5 9.0
2017-Oct-25 09:30N 05°34' E 000°11'5 9.0
2017-Oct-25 09:00N 05°36' E 000°07'4 8.7
2017-Oct-25 08:30N 05°37' E 000°03'2 4.2
2017-Oct-25 08:01N 05°38' E 000°01'0 0.2
2017-Oct-25 07:30N 05°38' E 000°01'0 0.0
2017-Oct-25 06:59N 05°38' E 000°01'0 0.0
2017-Oct-25 06:29N 05°38' E 000°01'0 0.0
2017-Oct-25 05:59N 05°38' E 000°01'0 0.0
2017-Oct-25 05:30N 05°38' E 000°01'0 0.0
2017-Oct-25 05:00N 05°38' E 000°01'0 0.0
2017-Oct-25 04:29N 05°38' E 000°01'0 0.0
2017-Oct-25 04:00N 05°38' E 000°01'0 0.0
2017-Oct-25 03:29N 05°38' E 000°01'0 0.0
2017-Oct-25 02:59N 05°38' E 000°01'0 0.0
2017-Oct-25 02:29N 05°38' E 000°01'0 0.0
2017-Oct-25 01:57N 05°38' E 000°01'0 0.0
2017-Oct-25 01:29N 05°38' E 000°01'0 0.0
2017-Oct-25 00:59N 05°38' E 000°01'0 0.0
2017-Oct-25 00:29N 05°38' E 000°01'0 0.0
2017-Oct-24 23:59N 05°38' E 000°01'0 0.0
2017-Oct-24 23:29N 05°38' E 000°01'0 0.0
2017-Oct-24 22:59N 05°38' E 000°01'0 0.0
2017-Oct-24 22:29N 05°38' E 000°01'0 0.0
2017-Oct-24 21:59N 05°38' E 000°01'0 0.0
2017-Oct-24 21:29N 05°38' E 000°01'0 0.0
2017-Oct-24 20:59N 05°38' E 000°01'0 0.0
2017-Oct-24 20:29N 05°38' E 000°01'0 0.0
2017-Oct-24 19:59N 05°38' E 000°01'0 0.0
2017-Oct-24 19:29N 05°38' E 000°01'0 0.2
2017-Oct-24 19:00N 05°38' E 000°01'1 2.1
2017-Oct-24 18:30N 05°38' E 000°02'2 3.9
2017-Oct-24 18:00N 05°36' E 000°03'2 3.3
2017-Oct-24 17:29N 05°34' E 000°02'0 0.0
2017-Oct-24 16:59N 05°34' E 000°02'0 0.0
2017-Oct-24 16:26N 05°34' E 000°02'0 0.0
2017-Oct-24 15:59N 05°34' E 000°02'0 0.3
2017-Oct-24 15:30N 05°34' E 000°02'3 6.3
2017-Oct-24 15:00N 05°36' E 000°05'4 7.6
2017-Oct-24 14:30N 05°37' E 000°09'3 6.8
2017-Oct-24 14:00N 05°35' E 000°12'4 8.4
2017-Oct-24 13:30N 05°32' E 000°15'4 8.2
2017-Oct-24 13:00N 05°30' E 000°18'4 8.1
2017-Oct-24 12:30N 05°27' E 000°21'4 7.8
2017-Oct-24 11:59N 05°25' E 000°24'  
Track history (hours):
 
Tides and Currents Weather Stations Pressure Air Temp Water Temp Dewpoint Dewpoint Depression Visibility Wind Speed Wind Dir Waves Ship Positions

Anuket Pearl

Last reported at 2017-Oct-25 10:46 UTC. Time now 2017-Nov-22 03:43 UTC.
Position N 05°32' E 000°22'.
Warning: this ship's position is 27 days out of date.

Length 101 m; draft 6.6 m.

MMSI: 215338000.

Date/timePositionNaut miles runAvg speedWind from/ knotsBaromVisibWave heightAir tempDewpointWater temp
2017-Oct-25 10:46N 05°32' E 000°22'2 8.9
2017-Oct-25 10:30N 05°32' E 000°20'4 8.9
2017-Oct-25 10:00N 05°33' E 000°16'5 9.0
2017-Oct-25 09:30N 05°34' E 000°11'5 9.0
2017-Oct-25 09:00N 05°36' E 000°07'4 8.7
2017-Oct-25 08:30N 05°37' E 000°03'2 4.2
2017-Oct-25 08:01N 05°38' E 000°01'0 0.2
2017-Oct-25 07:30N 05°38' E 000°01'0 0.0
2017-Oct-25 06:59N 05°38' E 000°01'0 0.0
2017-Oct-25 06:29N 05°38' E 000°01'0 0.0
2017-Oct-25 05:59N 05°38' E 000°01'0 0.0
2017-Oct-25 05:30N 05°38' E 000°01'0 0.0
2017-Oct-25 05:00N 05°38' E 000°01'0 0.0
2017-Oct-25 04:29N 05°38' E 000°01'0 0.0
2017-Oct-25 04:00N 05°38' E 000°01'0 0.0
2017-Oct-25 03:29N 05°38' E 000°01'0 0.0
2017-Oct-25 02:59N 05°38' E 000°01'0 0.0
2017-Oct-25 02:29N 05°38' E 000°01'0 0.0
2017-Oct-25 01:57N 05°38' E 000°01'0 0.0
2017-Oct-25 01:29N 05°38' E 000°01'0 0.0
2017-Oct-25 00:59N 05°38' E 000°01'0 0.0
2017-Oct-25 00:29N 05°38' E 000°01'0 0.0
2017-Oct-24 23:59N 05°38' E 000°01'0 0.0
2017-Oct-24 23:29N 05°38' E 000°01'0 0.0
2017-Oct-24 22:59N 05°38' E 000°01'0 0.0
2017-Oct-24 22:29N 05°38' E 000°01'0 0.0
2017-Oct-24 21:59N 05°38' E 000°01'0 0.0
2017-Oct-24 21:29N 05°38' E 000°01'0 0.0
2017-Oct-24 20:59N 05°38' E 000°01'0 0.0
2017-Oct-24 20:29N 05°38' E 000°01'0 0.0
2017-Oct-24 19:59N 05°38' E 000°01'0 0.0
2017-Oct-24 19:29N 05°38' E 000°01'0 0.2
2017-Oct-24 19:00N 05°38' E 000°01'1 2.1
2017-Oct-24 18:30N 05°38' E 000°02'2 3.9
2017-Oct-24 18:00N 05°36' E 000°03'2 3.3
2017-Oct-24 17:29N 05°34' E 000°02'0 0.0
2017-Oct-24 16:59N 05°34' E 000°02'0 0.0
2017-Oct-24 16:26N 05°34' E 000°02'0 0.0
2017-Oct-24 15:59N 05°34' E 000°02'0 0.3
2017-Oct-24 15:30N 05°34' E 000°02'3 6.3
2017-Oct-24 15:00N 05°36' E 000°05'4 7.6
2017-Oct-24 14:30N 05°37' E 000°09'3 6.8
2017-Oct-24 14:00N 05°35' E 000°12'4 8.4
2017-Oct-24 13:30N 05°32' E 000°15'4 8.2
2017-Oct-24 13:00N 05°30' E 000°18'4 8.1
2017-Oct-24 12:30N 05°27' E 000°21'4 7.8
2017-Oct-24 11:59N 05°25' E 000°24'  

Dump ship's entire track history